sensor_id;sensor_type;location;lat;lon;timestamp;pressure;altitude;pressure_sealevel;temperature;humidity
74230;BME280;62589;12.568;99.958;2022-08-25T00:00:34;100370.31;;;34.21;52.13
74230;BME280;62589;12.568;99.958;2022-08-25T00:03:01;100375.47;;;34.22;51.88
74230;BME280;62589;12.568;99.958;2022-08-25T00:05:29;100380.25;;;34.22;52.04
74230;BME280;62589;12.568;99.958;2022-08-25T00:07:56;100378.66;;;34.21;52.28
74230;BME280;62589;12.568;99.958;2022-08-25T00:10:23;100390.59;;;34.21;52.73
74230;BME280;62589;12.568;99.958;2022-08-25T00:12:50;100391.41;;;34.18;52.88
74230;BME280;62589;12.568;99.958;2022-08-25T00:15:16;100396.56;;;34.20;52.71
74230;BME280;62589;12.568;99.958;2022-08-25T00:17:43;100403.75;;;34.21;52.71
74230;BME280;62589;12.568;99.958;2022-08-25T00:20:09;100400.56;;;34.19;53.32
74230;BME280;62589;12.568;99.958;2022-08-25T00:22:36;100406.53;;;34.17;53.69
74230;BME280;62589;12.568;99.958;2022-08-25T00:25:03;100402.56;;;34.18;53.83
74230;BME280;62589;12.568;99.958;2022-08-25T00:27:29;100399.78;;;34.18;54.13
74230;BME280;62589;12.568;99.958;2022-08-25T00:29:56;100404.53;;;34.18;53.72
74230;BME280;62589;12.568;99.958;2022-08-25T00:32:22;100401.75;;;34.18;53.62
74230;BME280;62589;12.568;99.958;2022-08-25T00:34:50;100411.72;;;34.19;53.81
74230;BME280;62589;12.568;99.958;2022-08-25T00:37:16;100406.53;;;34.17;54.31
74230;BME280;62589;12.568;99.958;2022-08-25T00:39:43;100409.31;;;34.17;53.90
74230;BME280;62589;12.568;99.958;2022-08-25T00:42:10;100409.72;;;34.16;54.64
74230;BME280;62589;12.568;99.958;2022-08-25T00:44:38;100412.13;;;34.17;54.92
74230;BME280;62589;12.568;99.958;2022-08-25T00:47:05;100413.31;;;34.16;55.15
74230;BME280;62589;12.568;99.958;2022-08-25T00:49:44;100415.31;;;34.16;54.91
74230;BME280;62589;12.568;99.958;2022-08-25T00:52:27;100421.25;;;34.18;55.97
74230;BME280;62589;12.568;99.958;2022-08-25T00:55:03;100426.44;;;34.16;55.83
74230;BME280;62589;12.568;99.958;2022-08-25T00:57:35;100424.84;;;34.14;56.64
74230;BME280;62589;12.568;99.958;2022-08-25T01:00:17;100429.22;;;34.19;56.42
74230;BME280;62589;12.568;99.958;2022-08-25T01:02:44;100442.34;;;34.19;56.15
74230;BME280;62589;12.568;99.958;2022-08-25T01:05:11;100432.41;;;34.21;56.60
74230;BME280;62589;12.568;99.958;2022-08-25T01:07:40;100435.19;;;34.18;55.78
74230;BME280;62589;12.568;99.958;2022-08-25T01:10:09;100446.31;;;34.21;55.29
74230;BME280;62589;12.568;99.958;2022-08-25T01:12:39;100447.91;;;34.22;55.09
74230;BME280;62589;12.568;99.958;2022-08-25T01:15:07;100450.31;;;34.24;55.25
74230;BME280;62589;12.568;99.958;2022-08-25T01:20:19;100454.28;;;34.26;55.33
74230;BME280;62589;12.568;99.958;2022-08-25T01:22:46;100459.06;;;34.29;55.56
74230;BME280;62589;12.568;99.958;2022-08-25T01:25:50;100461.41;;;34.34;55.14
74230;BME280;62589;12.568;99.958;2022-08-25T01:28:19;100469.38;;;34.36;54.81
74230;BME280;62589;12.568;99.958;2022-08-25T01:30:46;100472.56;;;34.38;54.57
74230;BME280;62589;12.568;99.958;2022-08-25T01:33:12;100470.94;;;34.40;54.60
74230;BME280;62589;12.568;99.958;2022-08-25T01:35:40;100472.53;;;34.41;54.56
74230;BME280;62589;12.568;99.958;2022-08-25T01:38:07;100478.50;;;34.43;54.11
74230;BME280;62589;12.568;99.958;2022-08-25T01:40:35;100482.47;;;34.46;53.82
74230;BME280;62589;12.568;99.958;2022-08-25T01:43:34;100480.81;;;34.52;53.83
74230;BME280;62589;12.568;99.958;2022-08-25T01:46:01;100475.25;;;34.52;53.73
74230;BME280;62589;12.568;99.958;2022-08-25T01:48:28;100482.00;;;34.55;53.88
74230;BME280;62589;12.568;99.958;2022-08-25T01:50:54;100472.03;;;34.57;54.00
74230;BME280;62589;12.568;99.958;2022-08-25T01:53:29;100480.00;;;34.59;54.09
74230;BME280;62589;12.568;99.958;2022-08-25T01:55:56;100470.81;;;34.62;53.96
74230;BME280;62589;12.568;99.958;2022-08-25T01:58:34;100484.75;;;34.65;53.83
74230;BME280;62589;12.568;99.958;2022-08-25T02:01:05;100473.59;;;34.69;53.81
74230;BME280;62589;12.568;99.958;2022-08-25T02:03:37;100475.16;;;34.70;53.65
74230;BME280;62589;12.568;99.958;2022-08-25T02:06:05;100473.91;;;34.74;53.67
74230;BME280;62589;12.568;99.958;2022-08-25T02:08:32;100464.38;;;34.79;53.56
74230;BME280;62589;12.568;99.958;2022-08-25T02:10:59;100465.13;;;34.83;53.29
74230;BME280;62589;12.568;99.958;2022-08-25T02:13:25;100468.69;;;34.87;53.22
74230;BME280;62589;12.568;99.958;2022-08-25T02:15:54;100463.50;;;34.89;52.55
74230;BME280;62589;12.568;99.958;2022-08-25T02:18:22;100469.84;;;34.93;52.64
74230;BME280;62589;12.568;99.958;2022-08-25T02:20:49;100464.22;;;34.97;52.31
74230;BME280;62589;12.568;99.958;2022-08-25T02:23:16;100468.59;;;34.98;52.33
74230;BME280;62589;12.568;99.958;2022-08-25T02:25:43;100472.16;;;35.02;52.22
74230;BME280;62589;12.568;99.958;2022-08-25T02:28:10;100469.75;;;35.04;51.79
74230;BME280;62589;12.568;99.958;2022-08-25T02:30:38;100474.53;;;35.07;51.61
74230;BME280;62589;12.568;99.958;2022-08-25T02:33:04;100474.50;;;35.10;51.82
74230;BME280;62589;12.568;99.958;2022-08-25T02:35:31;100475.25;;;35.14;51.70
74230;BME280;62589;12.568;99.958;2022-08-25T02:37:58;100474.44;;;35.18;52.05
74230;BME280;62589;12.568;99.958;2022-08-25T02:40:24;100475.19;;;35.22;51.59
74230;BME280;62589;12.568;99.958;2022-08-25T02:42:51;100476.00;;;35.22;51.21
74230;BME280;62589;12.568;99.958;2022-08-25T02:45:18;100478.75;;;35.26;51.21
74230;BME280;62589;12.568;99.958;2022-08-25T02:47:45;100479.97;;;35.28;51.68
74230;BME280;62589;12.568;99.958;2022-08-25T02:50:12;100471.19;;;35.30;52.10
74230;BME280;62589;12.568;99.958;2022-08-25T02:52:39;100468.78;;;35.32;51.60
74230;BME280;62589;12.568;99.958;2022-08-25T02:55:08;100469.91;;;35.34;51.68
74230;BME280;62589;12.568;99.958;2022-08-25T02:57:37;100460.72;;;35.37;51.52
74230;BME280;62589;12.568;99.958;2022-08-25T03:00:04;100459.09;;;35.40;50.82
74230;BME280;62589;12.568;99.958;2022-08-25T03:02:31;100460.66;;;35.44;51.49
74230;BME280;62589;12.568;99.958;2022-08-25T03:04:58;100449.88;;;35.46;51.32
74230;BME280;62589;12.568;99.958;2022-08-25T03:07:24;100451.03;;;35.53;50.37
74230;BME280;62589;12.568;99.958;2022-08-25T03:09:51;100452.63;;;35.54;49.92
74230;BME280;62589;12.568;99.958;2022-08-25T03:12:18;100452.53;;;35.57;49.69
74230;BME280;62589;12.568;99.958;2022-08-25T03:14:45;100446.13;;;35.60;49.82
74230;BME280;62589;12.568;99.958;2022-08-25T03:17:11;100450.50;;;35.61;49.74
74230;BME280;62589;12.568;99.958;2022-08-25T03:19:38;100449.69;;;35.64;49.18
74230;BME280;62589;12.568;99.958;2022-08-25T03:22:05;100452.47;;;35.64;49.68
74230;BME280;62589;12.568;99.958;2022-08-25T03:24:32;100455.63;;;35.70;49.24
74230;BME280;62589;12.568;99.958;2022-08-25T03:26:58;100454.00;;;35.72;49.30
74230;BME280;62589;12.568;99.958;2022-08-25T03:29:29;100457.97;;;35.75;49.40
74230;BME280;62589;12.568;99.958;2022-08-25T03:31:57;100446.34;;;35.80;48.69
74230;BME280;62589;12.568;99.958;2022-08-25T03:34:26;100446.69;;;35.86;48.47
74230;BME280;62589;12.568;99.958;2022-08-25T03:36:54;100450.28;;;35.86;48.34
74230;BME280;62589;12.568;99.958;2022-08-25T03:39:23;100439.47;;;35.88;48.24
74230;BME280;62589;12.568;99.958;2022-08-25T03:41:51;100428.28;;;35.92;48.79
74230;BME280;62589;12.568;99.958;2022-08-25T03:44:18;100432.97;;;35.98;48.60
74230;BME280;62589;12.568;99.958;2022-08-25T03:46:48;100428.13;;;36.02;49.17
74230;BME280;62589;12.568;99.958;2022-08-25T03:49:20;100416.06;;;36.09;48.17
74230;BME280;62589;12.568;99.958;2022-08-25T03:51:49;100424.06;;;36.07;47.31
74230;BME280;62589;12.568;99.958;2022-08-25T03:54:20;100416.44;;;36.11;47.37
74230;BME280;62589;12.568;99.958;2022-08-25T03:56:47;100419.13;;;36.18;47.57
74230;BME280;62589;12.568;99.958;2022-08-25T03:59:13;100412.69;;;36.21;47.40
74230;BME280;62589;12.568;99.958;2022-08-25T04:01:42;100411.47;;;36.26;48.02
74230;BME280;62589;12.568;99.958;2022-08-25T04:04:14;100413.00;;;36.30;47.57
74230;BME280;62589;12.568;99.958;2022-08-25T04:06:41;100404.59;;;36.34;47.54
74230;BME280;62589;12.568;99.958;2022-08-25T04:09:09;100399.72;;;36.38;48.11
74230;BME280;62589;12.568;99.958;2022-08-25T04:11:36;100400.44;;;36.42;47.86
74230;BME280;62589;12.568;99.958;2022-08-25T04:14:04;100395.59;;;36.46;47.35
74230;BME280;62589;12.568;99.958;2022-08-25T04:16:32;100394.75;;;36.49;47.28
74230;BME280;62589;12.568;99.958;2022-08-25T04:19:02;100391.50;;;36.54;47.13
74230;BME280;62589;12.568;99.958;2022-08-25T04:21:29;100385.41;;;36.59;46.71
74230;BME280;62589;12.568;99.958;2022-08-25T04:23:56;100389.38;;;36.62;46.34
74230;BME280;62589;12.568;99.958;2022-08-25T04:26:28;100381.72;;;36.66;46.39
74230;BME280;62589;12.568;99.958;2022-08-25T04:28:59;100384.88;;;36.68;45.47
74230;BME280;62589;12.568;99.958;2022-08-25T04:31:28;100374.84;;;36.70;44.80
74230;BME280;62589;12.568;99.958;2022-08-25T04:33:55;100380.00;;;36.75;45.38
74230;BME280;62589;12.568;99.958;2022-08-25T04:36:22;100374.31;;;36.79;45.64
74230;BME280;62589;12.568;99.958;2022-08-25T04:38:49;100365.44;;;36.84;45.52
74230;BME280;62589;12.568;99.958;2022-08-25T04:41:18;100373.00;;;36.87;45.69
74230;BME280;62589;12.568;99.958;2022-08-25T04:43:45;100368.50;;;36.93;45.48
74230;BME280;62589;12.568;99.958;2022-08-25T04:46:21;100365.28;;;36.95;45.57
74230;BME280;62589;12.568;99.958;2022-08-25T04:48:49;100372.75;;;37.01;46.00
74230;BME280;62589;12.568;99.958;2022-08-25T04:51:20;100369.88;;;37.05;46.15
74230;BME280;62589;12.568;99.958;2022-08-25T04:53:49;100363.44;;;37.08;46.15
74230;BME280;62589;12.568;99.958;2022-08-25T04:56:17;100357.78;;;37.11;46.30
74230;BME280;62589;12.568;99.958;2022-08-25T04:58:45;100364.97;;;37.12;46.95
74230;BME280;62589;12.568;99.958;2022-08-25T05:01:21;100363.69;;;37.17;46.00
74230;BME280;62589;12.568;99.958;2022-08-25T05:03:54;100356.94;;;37.14;46.16
74230;BME280;62589;12.568;99.958;2022-08-25T05:06:25;100354.56;;;37.13;46.29
74230;BME280;62589;12.568;99.958;2022-08-25T05:08:52;100353.69;;;37.16;46.21
74230;BME280;62589;12.568;99.958;2022-08-25T05:11:19;100350.47;;;37.17;46.10
74230;BME280;62589;12.568;99.958;2022-08-25T05:13:48;100349.63;;;37.21;46.42
74230;BME280;62589;12.568;99.958;2022-08-25T05:16:16;100353.66;;;37.20;46.42
74230;BME280;62589;12.568;99.958;2022-08-25T05:18:43;100343.59;;;37.22;46.65
74230;BME280;62589;12.568;99.958;2022-08-25T05:21:12;100338.00;;;37.22;46.44
74230;BME280;62589;12.568;99.958;2022-08-25T05:23:39;100340.00;;;37.22;46.19
74230;BME280;62589;12.568;99.958;2022-08-25T05:26:15;100331.66;;;37.18;46.40
74230;BME280;62589;12.568;99.958;2022-08-25T05:28:43;100330.47;;;37.19;46.41
74230;BME280;62589;12.568;99.958;2022-08-25T05:31:12;100329.31;;;37.16;46.58
74230;BME280;62589;12.568;99.958;2022-08-25T05:33:40;100316.88;;;37.17;46.45
74230;BME280;62589;12.568;99.958;2022-08-25T05:36:08;100314.56;;;37.12;46.51
74230;BME280;62589;12.568;99.958;2022-08-25T05:38:35;100313.84;;;37.08;46.88
74230;BME280;62589;12.568;99.958;2022-08-25T05:41:07;100311.84;;;37.09;46.59
74230;BME280;62589;12.568;99.958;2022-08-25T05:43:36;100308.25;;;37.08;46.61
74230;BME280;62589;12.568;99.958;2022-08-25T05:46:05;100313.84;;;37.08;46.82
74230;BME280;62589;12.568;99.958;2022-08-25T05:48:32;100305.94;;;37.03;46.53
74230;BME280;62589;12.568;99.958;2022-08-25T05:51:00;100311.59;;;37.00;46.93
74230;BME280;62589;12.568;99.958;2022-08-25T05:53:29;100298.84;;;36.99;46.83
74230;BME280;62589;12.568;99.958;2022-08-25T05:55:57;100295.69;;;36.97;46.46
74230;BME280;62589;12.568;99.958;2022-08-25T05:58:25;100286.16;;;36.94;46.39
74230;BME280;62589;12.568;99.958;2022-08-25T06:00:56;100282.19;;;36.92;47.04
74230;BME280;62589;12.568;99.958;2022-08-25T06:03:43;100272.63;;;36.89;47.06
74230;BME280;62589;12.568;99.958;2022-08-25T06:06:10;100269.41;;;36.91;47.25
74230;BME280;62589;12.568;99.958;2022-08-25T06:08:36;100263.75;;;36.94;47.67
74230;BME280;62589;12.568;99.958;2022-08-25T06:11:03;100258.16;;;36.94;47.15
74230;BME280;62589;12.568;99.958;2022-08-25T06:13:29;100261.38;;;36.93;47.32
74230;BME280;62589;12.568;99.958;2022-08-25T06:15:59;100252.56;;;36.94;47.16
74230;BME280;62589;12.568;99.958;2022-08-25T06:18:26;100254.16;;;36.95;47.76
74230;BME280;62589;12.568;99.958;2022-08-25T06:20:53;100242.94;;;36.95;47.85
74230;BME280;62589;12.568;99.958;2022-08-25T06:23:19;100242.09;;;36.98;47.70
74230;BME280;62589;12.568;99.958;2022-08-25T06:25:50;100234.91;;;36.97;47.76
74230;BME280;62589;12.568;99.958;2022-08-25T06:28:17;100228.44;;;37.00;47.45
74230;BME280;62589;12.568;99.958;2022-08-25T06:30:44;100228.53;;;36.97;47.96
74230;BME280;62589;12.568;99.958;2022-08-25T06:33:11;100232.03;;;37.01;47.85
74230;BME280;62589;12.568;99.958;2022-08-25T06:35:41;100216.47;;;37.00;48.36
74230;BME280;62589;12.568;99.958;2022-08-25T06:38:07;100228.38;;;37.04;47.94
74230;BME280;62589;12.568;99.958;2022-08-25T06:40:35;100225.94;;;37.06;48.24
74230;BME280;62589;12.568;99.958;2022-08-25T06:43:01;100227.09;;;37.08;48.02
74230;BME280;62589;12.568;99.958;2022-08-25T06:45:31;100224.66;;;37.10;48.14
74230;BME280;62589;12.568;99.958;2022-08-25T06:47:57;100215.25;;;37.01;47.19
74230;BME280;62589;12.568;99.958;2022-08-25T06:50:24;100212.00;;;37.02;47.36
74230;BME280;62589;12.568;99.958;2022-08-25T06:52:50;100219.63;;;37.02;47.00
74230;BME280;62589;12.568;99.958;2022-08-25T06:55:17;100219.84;;;36.91;47.25
74230;BME280;62589;12.568;99.958;2022-08-25T06:57:43;100212.59;;;36.94;47.41
74230;BME280;62589;12.568;99.958;2022-08-25T07:00:10;100210.16;;;36.96;47.73
74230;BME280;62589;12.568;99.958;2022-08-25T07:02:37;100203.78;;;36.95;47.55
74230;BME280;62589;12.568;99.958;2022-08-25T07:05:04;100206.28;;;36.90;47.33
74230;BME280;62589;12.568;99.958;2022-08-25T07:07:31;100204.63;;;36.92;47.96
74230;BME280;62589;12.568;99.958;2022-08-25T07:09:58;100199.84;;;36.93;47.95
74230;BME280;62589;12.568;99.958;2022-08-25T07:12:24;100191.00;;;36.94;47.57
74230;BME280;62589;12.568;99.958;2022-08-25T07:14:50;100186.63;;;36.93;47.91
74230;BME280;62589;12.568;99.958;2022-08-25T07:17:17;100183.84;;;36.93;47.65
74230;BME280;62589;12.568;99.958;2022-08-25T07:19:44;100191.00;;;36.94;47.37
74230;BME280;62589;12.568;99.958;2022-08-25T07:22:10;100176.66;;;36.92;46.95
74230;BME280;62589;12.568;99.958;2022-08-25T07:24:37;100175.06;;;36.91;47.39
74230;BME280;62589;12.568;99.958;2022-08-25T07:27:03;100177.50;;;36.89;47.28
74230;BME280;62589;12.568;99.958;2022-08-25T07:29:30;100174.66;;;36.93;47.88
74230;BME280;62589;12.568;99.958;2022-08-25T07:31:59;100172.63;;;36.93;48.06
74230;BME280;62589;12.568;99.958;2022-08-25T07:34:26;100172.22;;;36.95;48.24
74230;BME280;62589;12.568;99.958;2022-08-25T07:37:04;100163.53;;;36.89;48.28
74230;BME280;62589;12.568;99.958;2022-08-25T07:39:31;100160.88;;;36.82;48.11
74230;BME280;62589;12.568;99.958;2022-08-25T07:41:58;100157.22;;;36.85;48.42
74230;BME280;62589;12.568;99.958;2022-08-25T07:44:26;100159.16;;;36.88;48.89
74230;BME280;62589;12.568;99.958;2022-08-25T07:46:53;100156.72;;;36.90;49.41
74230;BME280;62589;12.568;99.958;2022-08-25T07:49:21;100157.78;;;36.96;49.22
74230;BME280;62589;12.568;99.958;2022-08-25T07:51:49;100152.19;;;36.96;48.30
74230;BME280;62589;12.568;99.958;2022-08-25T07:54:16;100157.06;;;36.92;48.53
74230;BME280;62589;12.568;99.958;2022-08-25T07:56:42;100160.38;;;36.87;49.08
74230;BME280;62589;12.568;99.958;2022-08-25T07:59:09;100154.78;;;36.87;48.70
74230;BME280;62589;12.568;99.958;2022-08-25T08:01:36;100153.63;;;36.85;48.62
74230;BME280;62589;12.568;99.958;2022-08-25T08:04:03;100139.63;;;36.85;49.00
74230;BME280;62589;12.568;99.958;2022-08-25T08:06:29;100154.41;;;36.85;49.33
74230;BME280;62589;12.568;99.958;2022-08-25T08:08:56;100151.97;;;36.87;49.59
74230;BME280;62589;12.568;99.958;2022-08-25T08:11:28;100148.88;;;36.81;48.68
74230;BME280;62589;12.568;99.958;2022-08-25T08:13:56;100148.09;;;36.81;48.69
74230;BME280;62589;12.568;99.958;2022-08-25T08:16:25;100148.88;;;36.81;48.74
74230;BME280;62589;12.568;99.958;2022-08-25T08:18:52;100146.78;;;36.66;48.66
74230;BME280;62589;12.568;99.958;2022-08-25T08:21:22;100144.84;;;36.63;48.86
74230;BME280;62589;12.568;99.958;2022-08-25T08:23:49;100142.09;;;36.59;48.55
74230;BME280;62589;12.568;99.958;2022-08-25T08:26:17;100137.41;;;36.56;48.97
74230;BME280;62589;12.568;99.958;2022-08-25T08:28:44;100138.59;;;36.55;48.60
74230;BME280;62589;12.568;99.958;2022-08-25T08:31:10;100144.56;;;36.57;48.70
74230;BME280;62589;12.568;99.958;2022-08-25T08:33:37;100141.78;;;36.57;49.22
74230;BME280;62589;12.568;99.958;2022-08-25T08:36:06;100143.78;;;36.57;49.27
74230;BME280;62589;12.568;99.958;2022-08-25T08:38:35;100133.38;;;36.57;49.60
74230;BME280;62589;12.568;99.958;2022-08-25T08:50:03;100112.78;;;36.47;48.46
74230;BME280;62589;12.568;99.958;2022-08-25T08:53:07;100119.09;;;36.52;48.34
74230;BME280;62589;12.568;99.958;2022-08-25T08:55:47;100109.69;;;36.42;47.79
74230;BME280;62589;12.568;99.958;2022-08-25T08:58:18;100104.09;;;36.42;48.33
74230;BME280;62589;12.568;99.958;2022-08-25T09:00:48;100101.03;;;36.36;48.41
74230;BME280;62589;12.568;99.958;2022-08-25T09:03:40;100106.41;;;36.47;48.65
74230;BME280;62589;12.568;99.958;2022-08-25T09:06:43;100102.44;;;36.44;48.15
74230;BME280;62589;12.568;99.958;2022-08-25T09:09:12;100091.34;;;36.41;48.29
74230;BME280;62589;12.568;99.958;2022-08-25T09:12:09;100094.66;;;36.36;48.58
74230;BME280;62589;12.568;99.958;2022-08-25T09:18:04;100086.75;;;36.31;48.56
74230;BME280;62589;12.568;99.958;2022-08-25T09:26:44;100083.47;;;36.36;48.47
74230;BME280;62589;12.568;99.958;2022-08-25T09:29:21;100089.53;;;36.31;48.72
74230;BME280;62589;12.568;99.958;2022-08-25T09:31:49;100090.81;;;36.26;48.42
74230;BME280;62589;12.568;99.958;2022-08-25T09:34:19;100080.84;;;36.25;47.75
74230;BME280;62589;12.568;99.958;2022-08-25T09:36:46;100078.44;;;36.27;47.51
74230;BME280;62589;12.568;99.958;2022-08-25T09:39:15;100084.47;;;36.22;48.06
74230;BME280;62589;12.568;99.958;2022-08-25T09:41:57;100079.22;;;36.28;48.24
74230;BME280;62589;12.568;99.958;2022-08-25T09:44:45;100076.34;;;36.31;48.64
74230;BME280;62589;12.568;99.958;2022-08-25T09:47:25;100074.00;;;36.30;48.70
74230;BME280;62589;12.568;99.958;2022-08-25T09:50:03;100068.41;;;36.30;49.46
74230;BME280;62589;12.568;99.958;2022-08-25T09:52:35;100070.41;;;36.29;49.34
74230;BME280;62589;12.568;99.958;2022-08-25T09:55:24;100070.34;;;36.33;48.32
74230;BME280;62589;12.568;99.958;2022-08-25T09:57:54;100070.41;;;36.29;48.14
74230;BME280;62589;12.568;99.958;2022-08-25T10:00:30;100073.69;;;36.24;48.33
74230;BME280;62589;12.568;99.958;2022-08-25T10:03:21;100068.47;;;36.26;48.62
74230;BME280;62589;12.568;99.958;2022-08-25T10:06:11;100065.69;;;36.23;48.28
74230;BME280;62589;12.568;99.958;2022-08-25T10:08:58;100070.94;;;36.21;48.64
74230;BME280;62589;12.568;99.958;2022-08-25T10:11:42;100072.50;;;36.22;48.48
74230;BME280;62589;12.568;99.958;2022-08-25T10:14:34;100073.88;;;36.13;48.68
74230;BME280;62589;12.568;99.958;2022-08-25T10:17:22;100077.53;;;36.10;49.07
74230;BME280;62589;12.568;99.958;2022-08-25T10:19:54;100083.16;;;36.07;49.39
74230;BME280;62589;12.568;99.958;2022-08-25T10:22:39;100080.50;;;36.00;49.85
74230;BME280;62589;12.568;99.958;2022-08-25T10:25:08;100083.28;;;36.00;50.31
74230;BME280;62589;12.568;99.958;2022-08-25T10:33:38;100109.59;;;36.02;50.57
74230;BME280;62589;12.568;99.958;2022-08-25T10:36:21;100121.13;;;36.04;50.27
74230;BME280;62589;12.568;99.958;2022-08-25T10:38:59;100123.13;;;36.04;50.24
74230;BME280;62589;12.568;99.958;2022-08-25T10:44:36;100123.56;;;36.02;49.79
74230;BME280;62589;12.568;99.958;2022-08-25T10:50:35;100131.63;;;35.97;49.45
74230;BME280;62589;12.568;99.958;2022-08-25T10:53:34;100144.34;;;36.01;49.51
74230;BME280;62589;12.568;99.958;2022-08-25T10:56:21;100152.75;;;35.98;49.63
74230;BME280;62589;12.568;99.958;2022-08-25T11:05:09;100179.50;;;35.99;50.08
74230;BME280;62589;12.568;99.958;2022-08-25T11:07:48;100165.28;;;35.90;52.06
74230;BME280;62589;12.568;99.958;2022-08-25T11:10:21;100169.41;;;35.81;54.27
74230;BME280;62589;12.568;99.958;2022-08-25T11:13:04;100174.19;;;35.81;53.57
74230;BME280;62589;12.568;99.958;2022-08-25T11:16:00;100181.03;;;35.76;54.82
74230;BME280;62589;12.568;99.958;2022-08-25T11:18:27;100186.72;;;35.69;54.72
74230;BME280;62589;12.568;99.958;2022-08-25T11:21:10;100196.31;;;35.68;54.80
74230;BME280;62589;12.568;99.958;2022-08-25T11:23:57;100222.34;;;35.62;55.73
74230;BME280;62589;12.568;99.958;2022-08-25T11:26:29;100232.72;;;35.61;56.92
74230;BME280;62589;12.568;99.958;2022-08-25T11:29:08;100238.94;;;35.72;57.92
74230;BME280;62589;12.568;99.958;2022-08-25T11:31:41;100248.25;;;35.62;58.12
74230;BME280;62589;12.568;99.958;2022-08-25T11:34:11;100242.28;;;35.60;58.98
74230;BME280;62589;12.568;99.958;2022-08-25T11:36:56;100242.72;;;35.59;59.31
74230;BME280;62589;12.568;99.958;2022-08-25T11:45:29;100269.00;;;35.61;59.91
74230;BME280;62589;12.568;99.958;2022-08-25T11:54:29;100298.72;;;35.48;60.59
74230;BME280;62589;12.568;99.958;2022-08-25T11:57:04;100306.38;;;35.40;60.90
74230;BME280;62589;12.568;99.958;2022-08-25T12:02:36;100339.53;;;35.35;61.49
74230;BME280;62589;12.568;99.958;2022-08-25T12:08:10;100342.78;;;35.30;60.50
74230;BME280;62589;12.568;99.958;2022-08-25T12:11:06;100337.63;;;35.28;59.02
74230;BME280;62589;12.568;99.958;2022-08-25T12:13:47;100369.16;;;35.22;58.37
74230;BME280;62589;12.568;99.958;2022-08-25T12:16:37;100393.13;;;35.15;57.49
74230;BME280;62589;12.568;99.958;2022-08-25T12:28:04;100369.22;;;34.66;55.74
74230;BME280;62589;12.568;99.958;2022-08-25T12:30:48;100350.16;;;34.58;56.12
74230;BME280;62589;12.568;99.958;2022-08-25T12:36:09;100362.25;;;34.37;54.84
74230;BME280;62589;12.568;99.958;2022-08-25T12:38:48;100351.59;;;34.18;54.12
74230;BME280;62589;12.568;99.958;2022-08-25T12:41:26;100392.22;;;34.15;54.50
74230;BME280;62589;12.568;99.958;2022-08-25T12:44:16;100420.09;;;34.11;54.29
74230;BME280;62589;12.568;99.958;2022-08-25T12:49:47;100406.63;;;33.99;57.44
74230;BME280;62589;12.568;99.958;2022-08-25T12:52:20;100389.13;;;33.95;58.57
74230;BME280;62589;12.568;99.958;2022-08-25T12:54:54;100405.44;;;33.97;59.45
74230;BME280;62589;12.568;99.958;2022-08-25T12:57:48;100411.78;;;34.01;60.63
74230;BME280;62589;12.568;99.958;2022-08-25T13:00:23;100417.78;;;33.96;60.23
74230;BME280;62589;12.568;99.958;2022-08-25T13:03:19;100392.31;;;33.97;59.47
74230;BME280;62589;12.568;99.958;2022-08-25T13:09:06;100403.47;;;33.94;59.55
74230;BME280;62589;12.568;99.958;2022-08-25T13:14:42;100422.56;;;33.92;58.87
74230;BME280;62589;12.568;99.958;2022-08-25T13:17:09;100422.97;;;33.90;58.79
74230;BME280;62589;12.568;99.958;2022-08-25T13:19:36;100427.75;;;33.90;59.18
74230;BME280;62589;12.568;99.958;2022-08-25T13:22:12;100436.53;;;33.85;60.55
74230;BME280;62589;12.568;99.958;2022-08-25T13:24:41;100427.38;;;33.84;60.48
74230;BME280;62589;12.568;99.958;2022-08-25T13:27:21;100415.06;;;33.85;61.23
74230;BME280;62589;12.568;99.958;2022-08-25T13:29:52;100423.41;;;33.82;60.92
74230;BME280;62589;12.568;99.958;2022-08-25T13:32:32;100417.03;;;33.85;61.57
74230;BME280;62589;12.568;99.958;2022-08-25T13:35:15;100425.75;;;33.90;61.09
74230;BME280;62589;12.568;99.958;2022-08-25T13:37:42;100430.56;;;33.86;61.67
74230;BME280;62589;12.568;99.958;2022-08-25T13:40:24;100443.69;;;33.86;61.31
74230;BME280;62589;12.568;99.958;2022-08-25T13:42:57;100457.63;;;33.82;60.79
74230;BME280;62589;12.568;99.958;2022-08-25T13:45:27;100449.66;;;33.84;60.55
74230;BME280;62589;12.568;99.958;2022-08-25T13:47:54;100450.47;;;33.81;61.43
74230;BME280;62589;12.568;99.958;2022-08-25T13:50:41;100464.00;;;33.83;61.14
74230;BME280;62589;12.568;99.958;2022-08-25T13:53:19;100472.75;;;33.77;62.43
74230;BME280;62589;12.568;99.958;2022-08-25T13:55:52;100473.16;;;33.79;62.14
74230;BME280;62589;12.568;99.958;2022-08-25T13:58:22;100473.94;;;33.84;61.79
74230;BME280;62589;12.568;99.958;2022-08-25T14:01:23;100475.91;;;33.87;62.43
74230;BME280;62589;12.568;99.958;2022-08-25T14:03:52;100475.91;;;33.83;62.28
74230;BME280;62589;12.568;99.958;2022-08-25T14:06:24;100480.69;;;33.83;61.45
74230;BME280;62589;12.568;99.958;2022-08-25T14:09:06;100470.34;;;33.83;61.05
74230;BME280;62589;12.568;99.958;2022-08-25T14:11:54;100456.44;;;33.83;61.68
74230;BME280;62589;12.568;99.958;2022-08-25T14:14:31;100457.63;;;33.78;61.86
74230;BME280;62589;12.568;99.958;2022-08-25T14:17:06;100465.56;;;33.76;62.52
74230;BME280;62589;12.568;99.958;2022-08-25T14:19:34;100473.91;;;33.76;62.23
74230;BME280;62589;12.568;99.958;2022-08-25T14:22:02;100475.09;;;33.75;61.74